Terminal Aerodrome Forecast
Issued by NWS

Home | Current Version | Previous Version | Text Only | Print | Product List | Glossary On
Versions: 1 2 3 4 5 6 7 8 9 10 11 12 13 14 15 16 17 18 19 20 21 22 23 24 25 26 27 28 29
000
FTPA31 PHFO 142300
TAFLIH
TAF
PHLI 142320Z 1500/1524 04010KT P6SM FEW025 SCT050
     FM150500 32005KT P6SM FEW025
     FM151200 VRB05KT P6SM VCSH SCT020 BKN040
     FM152100 06008KT P6SM SCT025 BKN050=

USA.gov is the U.S. government's official web portal to all federal, state and local government web resources and services.